CheckWX is a tool to help pilots better visualize weather data.  It is not intended as a substitute for an official pre-flight weather briefing.

15:26:03 UTC

KFWS METAR
Fort Worth Spinks Airport
Fort Worth, Texas, USA
Current

37 mins ago

KFWS 261449Z 16010KT 10SM BKN020 BKN034 25/20 A3009
Observed
May-26 @ 14:49 UTC
Wind
  • 160° at 10 KTS
Visibility
10 SM
Flight Rules
MVFR
Cloud Levels
  • Broken at 2,000' AGL
  • Broken at 3,400' AGL
Temperature
25°C / 77°F
Dewpoint
20°C / 68°F
Humidity
74%
Altimeter
30.09" Hg
Pressure
1018.92 hPa
Previous

2 hours ago

KFWS 261351Z 16010KT 10SM BKN010 BKN028 24/21 A3008
Observed
May-26 @ 13:51 UTC
Wind
  • 160° at 10 KTS
Visibility
10 SM
Flight Rules
MVFR
Cloud Levels
  • Broken at 1,000' AGL
  • Broken at 2,800' AGL
Temperature
24°C / 75°F
Dewpoint
21°C / 70°F
Humidity
83%
Altimeter
30.08" Hg
Pressure
1018.62 hPa
Previous

3 hours ago

KFWS 261247Z 15008G17KT 7SM BKN09 23/21 A3007
Observed
May-26 @ 12:47 UTC
Wind
  • 150° at 8 KTS
  • Gusting to 17 KTS
Visibility
7 SM
Temperature
23°C / 73°F
Dewpoint
21°C / 70°F
Humidity
89%
Altimeter
30.07" Hg
Pressure
1018.32 hPa